createdAt,value
2023-02-05T00:00:07.965Z,32.13
2023-02-05T00:01:09.832Z,33.45
2023-02-05T00:02:14.607Z,31.40
2023-02-05T00:03:16.539Z,40.67
2023-02-05T00:04:21.788Z,33.65
2023-02-05T00:05:23.781Z,32.58
2023-02-05T00:06:28.301Z,33.80
2023-02-05T00:07:30.220Z,42.33
2023-02-05T00:08:34.974Z,31.15
2023-02-05T00:09:41.004Z,36.78
2023-02-05T00:10:45.523Z,40.17
2023-02-05T00:11:47.467Z,28.67
2023-02-05T00:12:52.154Z,31.38
2023-02-05T00:13:54.537Z,32.15
2023-02-05T00:14:59.032Z,27.83
2023-02-05T00:16:00.939Z,33.85
2023-02-05T00:17:06.254Z,35.20
2023-02-05T00:18:08.224Z,33.53
2023-02-05T00:19:12.744Z,41.88
2023-02-05T00:20:14.686Z,38.80
2023-02-05T00:21:20.123Z,31.33
2023-02-05T00:22:22.160Z,37.30
2023-02-05T00:23:26.631Z,40.55
2023-02-05T00:24:28.545Z,33.47
2023-02-05T00:25:36.080Z,35.13
2023-02-05T00:26:38.249Z,31.70
2023-02-05T00:27:42.770Z,31.85
2023-02-05T00:28:44.874Z,29.98
2023-02-05T00:29:49.382Z,28.70
2023-02-05T00:30:51.425Z,26.88
2023-02-05T00:31:56.038Z,41.40
2023-02-05T00:32:57.979Z,34.58
2023-02-05T00:34:02.542Z,33.47
2023-02-05T00:35:04.981Z,31.52
2023-02-05T00:36:12.847Z,25.08
2023-02-05T00:37:15.065Z,32.00
2023-02-05T00:38:19.647Z,26.45
2023-02-05T00:39:21.551Z,34.78
2023-02-05T00:40:26.163Z,31.27
2023-02-05T00:41:30.665Z,27.05
2023-02-05T00:42:35.225Z,27.70
2023-02-05T00:43:37.307Z,25.15
2023-02-05T00:44:41.785Z,28.52
2023-02-05T00:45:43.780Z,27.98
2023-02-05T00:46:48.252Z,27.75
2023-02-05T00:47:50.152Z,31.67
2023-02-05T00:48:54.652Z,26.25
2023-02-05T00:49:56.516Z,29.17
2023-02-05T00:51:01.325Z,26.23
2023-02-05T00:52:06.140Z,34.10
2023-02-05T00:53:08.253Z,28.45
2023-02-05T00:54:13.089Z,26.95
2023-02-05T00:55:15.068Z,27.75
2023-02-05T00:56:19.618Z,29.52
2023-02-05T00:57:24.885Z,26.23
2023-02-05T00:58:29.581Z,26.40
2023-02-05T00:59:31.558Z,26.15
2023-02-05T01:00:36.539Z,24.20
2023-02-05T01:01:38.507Z,28.35
2023-02-05T01:02:43.117Z,25.90
2023-02-05T01:03:45.267Z,32.42
2023-02-05T01:04:49.771Z,24.98
2023-02-05T01:05:51.762Z,29.52
2023-02-05T01:06:56.250Z,28.02
2023-02-05T01:07:58.175Z,25.85
2023-02-05T01:09:02.702Z,30.10
2023-02-05T01:10:06.492Z,31.88
2023-02-05T01:11:12.989Z,30.25
2023-02-05T01:12:15.139Z,29.08
2023-02-05T01:13:22.490Z,27.50
2023-02-05T01:14:24.437Z,31.15
2023-02-05T01:15:29.265Z,26.67
2023-02-05T01:16:33.843Z,28.45
2023-02-05T01:17:35.837Z,25.42
2023-02-05T01:18:43.014Z,26.70
2023-02-05T01:19:45.113Z,24.52
2023-02-05T01:20:49.601Z,24.92
2023-02-05T01:21:51.706Z,27.58
2023-02-05T01:22:56.206Z,30.92
2023-02-05T01:24:00.057Z,36.10
2023-02-05T01:25:04.646Z,32.92
2023-02-05T01:26:06.680Z,38.25
2023-02-05T01:27:11.252Z,35.75
2023-02-05T01:28:13.313Z,34.45
2023-02-05T01:29:20.413Z,33.90
2023-02-05T01:30:22.554Z,34.08
2023-02-05T01:31:28.354Z,35.05
2023-02-05T01:32:30.835Z,38.60
2023-02-05T01:33:35.790Z,53.65
2023-02-05T01:34:37.704Z,41.65
2023-02-05T01:35:44.965Z,38.17
2023-02-05T01:36:46.956Z,38.40
2023-02-05T01:37:51.444Z,33.15
2023-02-05T01:38:54.574Z,33.80
2023-02-05T01:39:59.081Z,35.50
2023-02-05T01:41:01.048Z,36.90
2023-02-05T01:42:05.673Z,33.35
2023-02-05T01:43:11.738Z,34.63
2023-02-05T01:44:24.523Z,32.50
2023-02-05T01:45:50.867Z,45.17
2023-02-05T01:46:56.925Z,39.15
2023-02-05T01:48:00.685Z,36.08
2023-02-05T01:49:07.248Z,32.70
2023-02-05T01:50:10.000Z,34.33
2023-02-05T01:51:18.361Z,35.03
2023-02-05T01:52:22.429Z,39.42
2023-02-05T01:53:31.564Z,48.42
2023-02-05T01:54:39.315Z,35.53
2023-02-05T01:55:45.866Z,34.08
2023-02-05T01:56:56.516Z,33.03
2023-02-05T01:58:00.879Z,34.08
2023-02-05T01:59:10.127Z,41.75
2023-02-05T02:00:15.992Z,38.00
2023-02-05T02:01:20.891Z,30.33
2023-02-05T02:02:23.299Z,30.55
2023-02-05T02:03:31.776Z,31.33
2023-02-05T02:04:40.761Z,32.00
2023-02-05T02:05:45.479Z,35.88
2023-02-05T02:06:50.129Z,31.55
2023-02-05T02:07:52.185Z,32.65
2023-02-05T02:08:56.765Z,27.83
2023-02-05T02:09:59.133Z,32.97
2023-02-05T02:11:07.627Z,29.48
2023-02-05T02:12:10.833Z,27.92
2023-02-05T02:13:16.042Z,23.42
2023-02-05T02:14:21.093Z,28.58
2023-02-05T02:15:27.764Z,28.05
2023-02-05T02:16:33.477Z,26.45
2023-02-05T02:17:42.624Z,29.13
2023-02-05T02:18:48.564Z,28.30
2023-02-05T02:19:56.367Z,26.17
2023-02-05T02:21:35.570Z,25.55
2023-02-05T02:22:49.280Z,28.23
2023-02-05T02:24:15.848Z,28.67
2023-02-05T02:25:53.965Z,28.13
2023-02-05T02:27:39.950Z,26.33
2023-02-05T02:28:45.765Z,26.00
2023-02-05T02:29:54.834Z,26.88
2023-02-05T02:31:04.521Z,27.55
2023-02-05T02:32:16.937Z,32.88
2023-02-05T02:33:28.214Z,28.23
2023-02-05T02:34:37.105Z,26.25
2023-02-05T02:35:47.611Z,27.88
2023-02-05T02:36:56.029Z,32.10
2023-02-05T02:38:05.836Z,24.13
2023-02-05T02:39:12.616Z,20.48
2023-02-05T02:40:23.772Z,25.08
2023-02-05T02:41:29.178Z,28.63
2023-02-05T02:42:43.174Z,30.67
2023-02-05T02:43:50.321Z,25.00
2023-02-05T02:45:00.011Z,26.05
2023-02-05T02:46:07.246Z,25.52
2023-02-05T02:47:16.790Z,26.33
2023-02-05T02:48:22.554Z,21.63
2023-02-05T02:49:31.911Z,22.20
2023-02-05T02:50:37.193Z,28.15
2023-02-05T02:51:43.720Z,24.48
2023-02-05T02:52:48.672Z,21.88
2023-02-05T02:53:57.789Z,30.05
2023-02-05T02:55:05.579Z,27.23
2023-02-05T02:56:13.532Z,24.77
2023-02-05T02:57:18.694Z,26.88
2023-02-05T02:58:33.524Z,27.90
2023-02-05T02:59:38.775Z,27.85
2023-02-05T03:00:46.759Z,25.33
2023-02-05T03:01:54.092Z,26.75
2023-02-05T03:03:04.135Z,23.70
2023-02-05T03:04:10.376Z,27.23
2023-02-05T03:05:20.338Z,23.23
2023-02-05T03:06:22.745Z,26.30
2023-02-05T03:07:31.334Z,26.02
2023-02-05T03:08:40.285Z,25.77
2023-02-05T03:09:51.186Z,22.80
2023-02-05T03:10:59.007Z,22.95
2023-02-05T03:12:03.546Z,33.42
2023-02-05T03:13:05.543Z,28.35
2023-02-05T03:14:12.709Z,23.15
2023-02-05T03:15:14.825Z,30.30
2023-02-05T03:16:24.960Z,32.20
2023-02-05T03:17:28.177Z,35.22
2023-02-05T03:18:35.828Z,25.92
2023-02-05T03:20:52.376Z,38.05
2023-02-05T03:21:59.252Z,28.55
2023-02-05T03:23:03.830Z,33.22
2023-02-05T03:24:06.603Z,29.75
2023-02-05T03:25:11.857Z,36.10
2023-02-05T03:26:25.808Z,29.73
2023-02-05T03:27:30.552Z,30.05
2023-02-05T03:28:32.554Z,30.30
2023-02-05T03:29:45.088Z,32.15
2023-02-05T03:31:04.836Z,28.67
2023-02-05T03:32:21.160Z,28.85
2023-02-05T03:33:41.552Z,31.83
2023-02-05T03:34:53.580Z,36.47
2023-02-05T03:36:04.049Z,28.63
2023-02-05T03:37:16.748Z,33.00
2023-02-05T03:38:36.076Z,31.23
2023-02-05T03:39:53.367Z,30.65
2023-02-05T03:41:01.964Z,24.27
2023-02-05T03:42:16.216Z,27.52
2023-02-05T03:43:39.372Z,28.80
2023-02-05T03:45:15.492Z,30.25
2023-02-05T03:46:24.543Z,29.05
2023-02-05T03:47:37.589Z,25.98
2023-02-05T03:48:55.898Z,26.27
2023-02-05T03:50:08.928Z,23.58
2023-02-05T03:51:24.862Z,27.67
2023-02-05T03:52:31.868Z,23.73
2023-02-05T03:53:42.133Z,18.65
2023-02-05T03:54:51.473Z,22.70
2023-02-05T03:56:04.130Z,23.48
2023-02-05T03:57:14.576Z,23.55
2023-02-05T03:58:26.064Z,23.50
2023-02-05T03:59:29.286Z,22.27
2023-02-05T04:00:37.326Z,24.52
2023-02-05T04:01:39.742Z,21.65
2023-02-05T04:02:45.316Z,21.55
2023-02-05T04:03:47.397Z,20.77
2023-02-05T04:04:52.221Z,22.63
2023-02-05T04:05:56.992Z,21.75
2023-02-05T04:06:58.952Z,21.80
2023-02-05T04:08:03.550Z,21.25
2023-02-05T04:09:05.888Z,21.05
2023-02-05T04:10:10.991Z,22.25
2023-02-05T04:11:13.482Z,24.10
2023-02-05T04:12:18.055Z,22.52
2023-02-05T04:13:20.054Z,22.83
2023-02-05T04:14:24.528Z,21.08
2023-02-05T04:15:26.526Z,21.95
2023-02-05T04:16:33.713Z,25.05
2023-02-05T04:17:35.626Z,21.70
2023-02-05T04:18:40.150Z,19.98
2023-02-05T04:19:42.123Z,17.70
2023-02-05T04:20:47.272Z,21.23
2023-02-05T04:21:49.236Z,24.75
2023-02-05T04:22:53.748Z,24.50
2023-02-05T04:23:55.747Z,20.60
2023-02-05T04:25:00.261Z,22.52
2023-02-05T04:26:02.275Z,19.30
2023-02-05T04:27:06.961Z,20.70
2023-02-05T04:28:10.587Z,22.25
2023-02-05T04:29:15.173Z,19.67
2023-02-05T04:30:17.364Z,20.38
2023-02-05T04:31:21.935Z,16.58
2023-02-05T04:32:26.521Z,18.10
2023-02-05T04:33:31.014Z,14.98
2023-02-05T04:34:32.936Z,17.25
2023-02-05T04:35:37.431Z,17.73
2023-02-05T04:36:42.028Z,18.80
2023-02-05T04:37:44.016Z,16.90
2023-02-05T04:38:48.549Z,16.42
2023-02-05T04:39:50.508Z,16.60
2023-02-05T04:40:55.234Z,13.93
2023-02-05T04:41:57.192Z,14.43
2023-02-05T04:43:01.707Z,15.70
2023-02-05T04:44:03.707Z,12.70
2023-02-05T04:45:08.946Z,14.75
2023-02-05T04:46:11.899Z,16.98
2023-02-05T04:47:16.422Z,16.83
2023-02-05T04:48:21.490Z,15.18
2023-02-05T04:49:26.310Z,13.75
2023-02-05T04:50:28.334Z,14.68
2023-02-05T04:51:33.249Z,14.70
2023-02-05T04:52:35.241Z,14.13
2023-02-05T04:53:39.959Z,13.73
2023-02-05T04:54:41.911Z,13.55
2023-02-05T04:55:46.462Z,14.90
2023-02-05T04:56:48.637Z,17.65
2023-02-05T04:57:53.111Z,14.70
2023-02-05T04:58:55.188Z,15.13
2023-02-05T04:59:59.907Z,17.48
2023-02-05T05:01:01.945Z,14.40
2023-02-05T05:02:06.495Z,13.95
2023-02-05T05:03:08.695Z,13.82
2023-02-05T05:04:15.797Z,14.93
2023-02-05T05:05:18.017Z,14.75
2023-02-05T05:06:22.726Z,15.23
2023-02-05T05:07:24.660Z,16.00
2023-02-05T05:08:29.166Z,11.68
2023-02-05T05:09:31.051Z,13.05
2023-02-05T05:10:35.558Z,15.35
2023-02-05T05:11:37.472Z,13.52
2023-02-05T05:12:42.034Z,13.77
2023-02-05T05:13:44.248Z,11.60
2023-02-05T05:14:48.775Z,12.57
2023-02-05T05:15:53.803Z,13.48
2023-02-05T05:16:58.342Z,13.32
2023-02-05T05:18:00.225Z,13.57
2023-02-05T05:19:04.768Z,11.55
2023-02-05T05:20:10.885Z,10.70
2023-02-05T05:21:15.416Z,17.17
2023-02-05T05:22:17.403Z,12.77
2023-02-05T05:23:22.088Z,15.27
2023-02-05T05:24:24.000Z,10.98
2023-02-05T05:25:28.482Z,13.15
2023-02-05T05:26:30.418Z,13.88
2023-02-05T05:27:34.942Z,15.68
2023-02-05T05:28:37.213Z,14.05
2023-02-05T05:29:41.962Z,13.90
2023-02-05T05:30:45.373Z,12.55
2023-02-05T05:31:49.972Z,15.32
2023-02-05T05:32:51.869Z,12.38
2023-02-05T05:33:56.632Z,13.43
2023-02-05T05:34:59.474Z,11.43
2023-02-05T05:36:07.282Z,17.88
2023-02-05T05:37:09.224Z,11.20
2023-02-05T05:38:13.805Z,12.90
2023-02-05T05:39:31.095Z,16.25
2023-02-05T05:40:48.146Z,16.77
2023-02-05T05:42:05.365Z,12.75
2023-02-05T05:43:25.006Z,13.52
2023-02-05T05:44:29.473Z,18.60
2023-02-05T05:45:31.502Z,14.48
2023-02-05T05:46:36.593Z,15.45
2023-02-05T05:47:38.510Z,15.23
2023-02-05T05:48:43.019Z,18.42
2023-02-05T05:49:45.478Z,18.65
2023-02-05T05:50:49.971Z,17.20
2023-02-05T05:51:54.480Z,17.58
2023-02-05T05:52:58.997Z,12.00
2023-02-05T05:54:01.108Z,19.38
2023-02-05T05:55:05.801Z,14.95
2023-02-05T05:56:07.686Z,18.05
2023-02-05T05:57:12.236Z,16.83
2023-02-05T05:58:14.782Z,16.88
2023-02-05T05:59:19.540Z,13.52
2023-02-05T06:00:21.761Z,14.65
2023-02-05T06:01:26.249Z,15.68
2023-02-05T06:02:28.120Z,17.02
2023-02-05T06:03:32.685Z,19.02
2023-02-05T06:04:34.708Z,15.70
2023-02-05T06:05:39.550Z,13.60
2023-02-05T06:06:42.016Z,14.25
2023-02-05T06:07:49.138Z,17.67
2023-02-05T06:08:51.105Z,16.10
2023-02-05T06:09:55.621Z,21.00
2023-02-05T06:10:57.705Z,14.27
2023-02-05T06:12:02.370Z,20.65
2023-02-05T06:13:04.279Z,14.25
2023-02-05T06:14:08.780Z,18.73
2023-02-05T06:15:10.801Z,15.68
2023-02-05T06:16:15.410Z,22.85
2023-02-05T06:17:17.359Z,21.30
2023-02-05T06:18:23.736Z,17.83
2023-02-05T06:19:25.857Z,16.75
2023-02-05T06:20:30.524Z,17.38
2023-02-05T06:21:32.452Z,18.58
2023-02-05T06:22:37.538Z,17.20
2023-02-05T06:23:42.072Z,14.60
2023-02-05T06:24:46.575Z,16.05
2023-02-05T06:25:48.765Z,12.60
2023-02-05T06:26:53.290Z,15.43
2023-02-05T06:27:55.289Z,15.52
2023-02-05T06:29:03.325Z,14.82
2023-02-05T06:30:06.165Z,16.50
2023-02-05T06:31:10.734Z,16.15
2023-02-05T06:32:12.763Z,13.65
2023-02-05T06:33:17.454Z,13.63
2023-02-05T06:34:19.364Z,14.02
2023-02-05T06:35:23.898Z,19.15
2023-02-05T06:36:25.977Z,13.57
2023-02-05T06:37:46.585Z,14.63
2023-02-05T06:38:54.784Z,13.55
2023-02-05T06:39:56.914Z,13.23
2023-02-05T06:41:01.541Z,20.55
2023-02-05T06:42:03.971Z,25.98
2023-02-05T06:43:08.479Z,21.70
2023-02-05T06:44:10.423Z,25.17
2023-02-05T06:45:14.977Z,28.95
2023-02-05T06:46:17.002Z,23.88
2023-02-05T06:47:21.561Z,17.55
2023-02-05T06:48:23.511Z,23.45
2023-02-05T06:49:28.060Z,19.20
2023-02-05T06:50:30.425Z,17.65
2023-02-05T06:51:34.990Z,16.15
2023-02-05T06:52:37.314Z,17.73
2023-02-05T06:53:41.866Z,14.45
2023-02-05T06:54:46.432Z,17.10
2023-02-05T06:55:50.967Z,12.75
2023-02-05T06:56:52.994Z,15.18
2023-02-05T06:57:57.783Z,14.10
2023-02-05T06:58:59.766Z,14.57
2023-02-05T07:00:04.304Z,26.25
2023-02-05T07:01:06.213Z,17.92
2023-02-05T07:02:12.493Z,18.63
2023-02-05T07:03:14.458Z,22.65
2023-02-05T07:04:19.046Z,22.23
2023-02-05T07:05:21.133Z,20.52
2023-02-05T07:06:26.255Z,23.63
2023-02-05T07:07:28.446Z,21.10
2023-02-05T07:08:33.307Z,26.02
2023-02-05T07:09:35.528Z,24.05
2023-02-05T07:10:42.695Z,27.95
2023-02-05T07:11:44.787Z,29.25
2023-02-05T07:12:49.970Z,27.13
2023-02-05T07:13:52.242Z,17.70
2023-02-05T07:14:56.952Z,21.83
2023-02-05T07:16:03.224Z,17.55
2023-02-05T07:17:08.088Z,21.17
2023-02-05T07:18:10.037Z,16.88
2023-02-05T07:19:14.573Z,12.05
2023-02-05T07:20:16.944Z,14.48
2023-02-05T07:21:22.322Z,14.20
2023-02-05T07:22:24.329Z,14.00
2023-02-05T07:23:28.909Z,13.95
2023-02-05T07:24:31.178Z,12.80
2023-02-05T07:25:37.970Z,16.85
2023-02-05T07:26:45.277Z,12.73
2023-02-05T07:27:49.891Z,17.08
2023-02-05T07:28:52.012Z,13.50
2023-02-05T07:29:56.553Z,13.52
2023-02-05T07:31:03.367Z,18.23
2023-02-05T07:32:08.079Z,18.38
2023-02-05T07:33:10.266Z,19.60
2023-02-05T07:34:14.803Z,21.13
2023-02-05T07:35:16.905Z,22.50
2023-02-05T07:36:21.607Z,18.65
2023-02-05T07:37:23.540Z,20.05
2023-02-05T07:38:28.075Z,23.85
2023-02-05T07:39:30.375Z,22.80
2023-02-05T07:40:35.145Z,29.90
2023-02-05T07:41:37.303Z,23.63
2023-02-05T07:42:44.420Z,23.25
2023-02-05T07:43:46.463Z,35.28
2023-02-05T07:44:51.027Z,26.65
2023-02-05T07:45:56.514Z,27.10
2023-02-05T07:47:01.094Z,25.67
2023-02-05T07:48:03.061Z,43.00
2023-02-05T07:49:07.590Z,39.47
2023-02-05T07:50:12.638Z,33.40
2023-02-05T07:51:17.479Z,32.80
2023-02-05T07:52:22.008Z,34.67
2023-02-05T07:53:24.377Z,33.22
2023-02-05T07:54:28.943Z,29.73
2023-02-05T07:55:30.905Z,28.50
2023-02-05T07:56:35.440Z,30.90
2023-02-05T07:57:37.855Z,31.75
2023-02-05T07:58:45.411Z,35.55
2023-02-05T07:59:50.121Z,33.95
2023-02-05T08:00:52.095Z,30.20
2023-02-05T08:01:56.661Z,29.90
2023-02-05T08:02:58.755Z,32.17
2023-02-05T08:04:03.807Z,24.75
2023-02-05T08:05:06.899Z,23.88
2023-02-05T08:06:14.584Z,20.35
2023-02-05T08:07:16.623Z,22.83
2023-02-05T08:08:21.218Z,24.60
2023-02-05T08:09:23.503Z,20.02
2023-02-05T08:10:28.010Z,20.50
2023-02-05T08:11:32.309Z,20.77
2023-02-05T08:12:37.102Z,15.77
2023-02-05T08:13:41.931Z,14.77
2023-02-05T08:14:46.939Z,16.40
2023-02-05T08:15:48.844Z,17.70
2023-02-05T08:16:53.414Z,19.30
2023-02-05T08:17:55.344Z,16.45
2023-02-05T08:18:59.869Z,19.13
2023-02-05T08:20:07.236Z,21.25
2023-02-05T08:21:11.807Z,24.88
2023-02-05T08:22:13.816Z,25.60
2023-02-05T08:23:18.324Z,22.35
2023-02-05T08:24:20.269Z,18.63
2023-02-05T08:25:24.804Z,23.80
2023-02-05T08:26:29.699Z,18.00
2023-02-05T08:27:34.974Z,21.42
2023-02-05T08:28:36.951Z,23.45
2023-02-05T08:29:44.086Z,17.60
2023-02-05T08:30:48.604Z,20.00
2023-02-05T08:31:50.810Z,19.45
2023-02-05T08:32:55.382Z,19.30
2023-02-05T08:34:00.230Z,20.45
2023-02-05T08:35:05.091Z,21.65
2023-02-05T08:36:11.830Z,18.02
2023-02-05T08:37:13.797Z,17.90
2023-02-05T08:38:18.305Z,18.55
2023-02-05T08:39:22.931Z,19.63
2023-02-05T08:40:27.477Z,22.05
2023-02-05T08:41:31.989Z,17.83
2023-02-05T08:42:34.036Z,19.10
2023-02-05T08:43:38.568Z,20.90
2023-02-05T08:44:46.133Z,25.52
2023-02-05T08:45:50.715Z,22.50
2023-02-05T08:46:55.243Z,22.42
2023-02-05T08:47:57.190Z,25.58
2023-02-05T08:49:01.932Z,21.67
2023-02-05T08:50:07.525Z,24.92
2023-02-05T08:51:13.036Z,21.38
2023-02-05T08:52:15.008Z,25.25
2023-02-05T08:53:19.501Z,24.42
2023-02-05T08:54:21.653Z,24.23
2023-02-05T08:55:26.194Z,27.15
2023-02-05T08:56:31.079Z,25.98
2023-02-05T08:57:33.344Z,19.15
2023-02-05T08:58:37.878Z,20.17
2023-02-05T08:59:42.530Z,24.17
2023-02-05T09:00:47.087Z,20.95
2023-02-05T09:01:52.177Z,20.20
2023-02-05T09:02:56.743Z,18.17
2023-02-05T09:03:58.714Z,20.25
2023-02-05T09:05:09.075Z,27.23
2023-02-05T09:06:16.477Z,27.13
2023-02-05T09:07:18.575Z,33.95
2023-02-05T09:08:23.113Z,28.95
2023-02-05T09:09:25.067Z,20.92
2023-02-05T09:10:29.590Z,27.42
2023-02-05T09:11:31.676Z,20.15
2023-02-05T09:12:36.243Z,21.75
2023-02-05T09:13:40.860Z,22.10
2023-02-05T09:14:47.988Z,19.10
2023-02-05T09:15:50.111Z,46.22
2023-02-05T09:16:54.698Z,44.92
2023-02-05T09:17:59.273Z,97.30
2023-02-05T09:19:01.409Z,41.53
2023-02-05T09:20:06.853Z,46.47
2023-02-05T09:21:09.884Z,32.20
2023-02-05T09:22:14.418Z,30.85
2023-02-05T09:23:18.259Z,26.80
2023-02-05T09:24:22.831Z,28.02
2023-02-05T09:25:29.427Z,40.28
2023-02-05T09:26:31.427Z,26.63
2023-02-05T09:27:36.242Z,25.95
2023-02-05T09:28:38.214Z,23.02
2023-02-05T09:29:42.819Z,27.45
2023-02-05T09:30:47.440Z,23.70
2023-02-05T09:31:52.241Z,32.40
2023-02-05T09:32:54.221Z,26.83
2023-02-05T09:33:58.751Z,26.05
2023-02-05T09:35:03.386Z,21.38
2023-02-05T09:36:07.307Z,24.67
2023-02-05T09:37:11.884Z,22.17
2023-02-05T09:38:15.292Z,16.77
2023-02-05T09:39:47.020Z,25.60
2023-02-05T09:41:01.361Z,24.27
2023-02-05T09:42:17.296Z,20.10
2023-02-05T09:43:30.163Z,16.55
2023-02-05T09:44:55.773Z,24.25
2023-02-05T09:46:08.754Z,29.17
2023-02-05T09:47:18.852Z,22.98
2023-02-05T09:48:49.500Z,25.58
2023-02-05T09:50:01.249Z,23.35
2023-02-05T09:51:04.806Z,24.63
2023-02-05T09:52:17.752Z,23.42
2023-02-05T09:53:22.007Z,19.05
2023-02-05T09:54:29.522Z,34.13
2023-02-05T09:55:35.839Z,19.27
2023-02-05T09:56:40.861Z,21.35
2023-02-05T09:57:43.850Z,20.17
2023-02-05T09:58:52.333Z,23.92
2023-02-05T09:59:57.012Z,24.45
2023-02-05T10:01:05.822Z,28.63
2023-02-05T10:02:24.671Z,24.25
2023-02-05T10:03:34.788Z,19.73
2023-02-05T10:04:36.810Z,25.17
2023-02-05T10:05:49.961Z,31.88
2023-02-05T10:07:27.529Z,23.10
2023-02-05T10:08:38.532Z,20.15
2023-02-05T10:09:54.958Z,21.05
2023-02-05T10:11:00.613Z,26.83
2023-02-05T10:12:13.743Z,28.65
2023-02-05T10:13:39.461Z,21.77
2023-02-05T10:14:54.651Z,18.80
2023-02-05T10:16:25.448Z,27.88
2023-02-05T10:17:41.241Z,25.13
2023-02-05T10:19:09.232Z,22.40
2023-02-05T10:20:30.510Z,29.67
2023-02-05T10:22:02.564Z,22.95
2023-02-05T10:23:17.411Z,24.98
2023-02-05T10:24:38.682Z,30.55
2023-02-05T10:26:12.172Z,29.75
2023-02-05T10:27:23.053Z,26.13
2023-02-05T10:28:53.242Z,28.70
2023-02-05T10:30:06.238Z,24.70
2023-02-05T10:31:18.748Z,24.98
2023-02-05T10:32:27.932Z,25.80
2023-02-05T10:33:48.619Z,30.00
2023-02-05T10:35:00.006Z,28.33
2023-02-05T10:36:08.488Z,25.45
2023-02-05T10:37:19.540Z,26.02
2023-02-05T10:38:25.315Z,26.88
2023-02-05T10:39:33.721Z,25.73
2023-02-05T10:40:46.569Z,32.28
2023-02-05T10:41:55.278Z,26.27
2023-02-05T10:43:07.006Z,33.72
2023-02-05T10:44:15.055Z,21.60
2023-02-05T10:45:23.783Z,28.50
2023-02-05T10:46:31.697Z,29.88
2023-02-05T10:47:52.631Z,32.20
2023-02-05T10:49:00.658Z,33.50
2023-02-05T10:50:10.606Z,26.55
2023-02-05T10:51:19.366Z,42.75
2023-02-05T10:52:21.304Z,41.05
2023-02-05T10:53:27.833Z,34.17
2023-02-05T10:54:31.938Z,29.88
2023-02-05T10:55:36.739Z,34.95
2023-02-05T10:56:41.328Z,42.83
2023-02-05T10:57:43.314Z,48.55
2023-02-05T10:58:53.520Z,38.15
2023-02-05T10:59:58.975Z,38.30
2023-02-05T11:01:03.999Z,40.45
2023-02-05T11:02:12.318Z,30.38
2023-02-05T11:03:22.228Z,37.60
2023-02-05T11:04:33.772Z,36.60
2023-02-05T11:05:41.509Z,44.38
2023-02-05T11:06:50.265Z,54.10
2023-02-05T11:07:56.452Z,40.53
2023-02-05T11:09:01.920Z,48.65
2023-02-05T11:10:17.877Z,41.95
2023-02-05T11:11:25.281Z,45.53
2023-02-05T11:12:33.049Z,55.08
2023-02-05T11:13:44.642Z,66.75
2023-02-05T11:16:06.672Z,64.93
2023-02-05T11:17:21.693Z,113.10
2023-02-05T11:18:32.162Z,116.38
2023-02-05T11:19:36.882Z,56.47
2023-02-05T11:20:39.869Z,49.42
2023-02-05T11:21:53.598Z,73.18
2023-02-05T11:23:18.174Z,380.33
2023-02-05T11:24:29.034Z,232.57
2023-02-05T11:25:31.564Z,73.43
2023-02-05T11:26:36.120Z,175.47
2023-02-05T11:27:40.725Z,213.35
2023-02-05T11:28:45.284Z,159.80
2023-02-05T11:29:47.289Z,235.88
2023-02-05T11:30:52.803Z,102.80
2023-02-05T11:31:55.208Z,62.60
2023-02-05T11:33:00.373Z,82.82
2023-02-05T11:34:20.012Z,122.75
2023-02-05T11:35:25.218Z,202.63
2023-02-05T11:36:29.746Z,184.68
2023-02-05T11:37:31.735Z,75.40
2023-02-05T11:38:45.070Z,168.35
2023-02-05T11:39:53.948Z,72.00
2023-02-05T11:41:01.880Z,296.83
2023-02-05T11:42:12.915Z,81.10
2023-02-05T11:43:22.290Z,278.92
2023-02-05T11:44:30.441Z,142.15
2023-02-05T11:45:38.240Z,122.15
2023-02-05T11:46:48.049Z,55.00
2023-02-05T11:47:50.041Z,81.53
2023-02-05T11:49:00.811Z,91.05
2023-02-05T11:50:20.322Z,84.57
2023-02-05T11:51:40.624Z,90.63
2023-02-05T11:52:42.890Z,46.47
2023-02-05T11:53:56.950Z,58.47
2023-02-05T11:54:59.790Z,76.90
2023-02-05T11:56:10.687Z,72.43
2023-02-05T11:57:33.530Z,54.42
2023-02-05T11:58:38.787Z,63.38
2023-02-05T11:59:41.137Z,52.80
2023-02-05T12:00:54.176Z,58.72
2023-02-05T12:02:28.785Z,99.30
2023-02-05T12:03:34.825Z,62.92
2023-02-05T12:04:46.703Z,83.90
2023-02-05T12:05:59.983Z,46.63
2023-02-05T12:07:14.546Z,61.53
2023-02-05T12:08:32.837Z,47.78
2023-02-05T12:09:34.784Z,81.68
2023-02-05T12:10:50.407Z,77.40
2023-02-05T12:12:16.925Z,66.43
2023-02-05T12:13:28.603Z,94.40
2023-02-05T12:15:47.824Z,81.97
2023-02-05T12:17:02.862Z,48.90
2023-02-05T12:18:19.223Z,66.85
2023-02-05T12:19:26.942Z,68.85
2023-02-05T12:20:35.741Z,74.40
2023-02-05T12:21:51.508Z,224.82
2023-02-05T12:23:18.656Z,70.28
2023-02-05T12:24:45.186Z,109.45
2023-02-05T12:26:02.250Z,89.50
2023-02-05T12:27:10.597Z,268.67
2023-02-05T12:28:33.018Z,172.25
2023-02-05T12:29:57.022Z,434.15
2023-02-05T12:31:11.559Z,348.95
2023-02-05T12:32:28.413Z,418.70
2023-02-05T12:33:46.955Z,582.28
2023-02-05T12:35:06.371Z,574.97
2023-02-05T12:36:22.992Z,481.80
2023-02-05T12:37:40.928Z,565.60
2023-02-05T12:38:58.325Z,587.90
2023-02-05T12:40:14.246Z,645.80
2023-02-05T12:41:27.914Z,368.67
2023-02-05T12:42:36.923Z,357.70
2023-02-05T12:43:42.454Z,369.60
2023-02-05T12:45:04.281Z,468.20
2023-02-05T12:46:23.534Z,250.70
2023-02-05T12:47:45.120Z,146.55
2023-02-05T12:49:01.333Z,159.18
2023-02-05T12:50:19.841Z,155.75
2023-02-05T12:51:38.290Z,121.82
2023-02-05T12:52:58.783Z,99.35
2023-02-05T12:54:21.023Z,94.18
2023-02-05T12:55:41.004Z,128.18
2023-02-05T12:56:58.297Z,199.02
2023-02-05T12:58:06.740Z,268.95
2023-02-05T12:59:15.177Z,93.40
2023-02-05T13:00:25.531Z,164.18
2023-02-05T13:01:38.255Z,110.03
2023-02-05T13:02:52.471Z,105.45
2023-02-05T13:04:00.259Z,189.55
2023-02-05T13:05:18.376Z,167.32
2023-02-05T13:06:26.618Z,149.13
2023-02-05T13:07:36.270Z,95.35
2023-02-05T13:08:45.831Z,127.82
2023-02-05T13:09:53.789Z,74.47
2023-02-05T13:11:00.230Z,87.68
2023-02-05T13:12:09.635Z,53.35
2023-02-05T13:13:19.344Z,126.63
2023-02-05T13:14:26.247Z,145.85
2023-02-05T13:15:35.365Z,78.93
2023-02-05T13:16:43.602Z,72.65
2023-02-05T13:17:58.313Z,61.90
2023-02-05T13:19:08.355Z,109.47
2023-02-05T13:20:19.895Z,174.98
2023-02-05T13:21:37.694Z,86.80
2023-02-05T13:23:02.513Z,69.93
2023-02-05T13:24:36.817Z,34.72
2023-02-05T13:25:57.166Z,49.55
2023-02-05T13:27:14.246Z,46.28
2023-02-05T13:30:17.280Z,32.75
2023-02-05T13:31:31.872Z,36.88
2023-02-05T13:32:34.933Z,31.92
2023-02-05T13:33:39.541Z,37.60
2023-02-05T13:34:44.581Z,31.23
2023-02-05T13:36:04.078Z,39.70
2023-02-05T13:37:27.447Z,38.30
2023-02-05T13:38:49.569Z,34.17
2023-02-05T13:40:32.694Z,30.35
2023-02-05T13:42:12.882Z,38.30
2023-02-05T13:43:50.117Z,29.85
2023-02-05T13:45:28.722Z,30.90
2023-02-05T13:46:58.335Z,35.00
2023-02-05T13:48:19.507Z,36.78
2023-02-05T13:49:49.361Z,36.40
2023-02-05T13:51:16.862Z,39.63
2023-02-05T13:52:42.164Z,35.28
2023-02-05T13:54:20.798Z,34.55
2023-02-05T13:55:47.146Z,36.88
2023-02-05T13:57:03.412Z,33.90
2023-02-05T13:58:25.216Z,31.88
2023-02-05T13:59:37.709Z,31.83
2023-02-05T14:00:41.486Z,39.05
2023-02-05T14:01:52.535Z,30.40
2023-02-05T14:02:57.938Z,46.15
2023-02-05T14:04:05.682Z,37.35
2023-02-05T14:05:11.234Z,33.15
2023-02-05T14:06:16.724Z,38.53
2023-02-05T14:07:26.738Z,47.13
2023-02-05T14:08:42.240Z,42.35
2023-02-05T14:09:56.625Z,50.97
2023-02-05T14:11:00.970Z,50.88
2023-02-05T14:12:08.805Z,51.25
2023-02-05T14:13:18.250Z,55.45
2023-02-05T14:14:36.845Z,52.10
2023-02-05T14:15:40.887Z,52.47
2023-02-05T14:16:49.678Z,78.15
2023-02-05T14:17:57.393Z,51.00
2023-02-05T14:19:17.492Z,42.33
2023-02-05T14:20:38.820Z,28.80
2023-02-05T14:22:07.955Z,44.58
2023-02-05T14:23:16.100Z,34.50
2023-02-05T14:24:41.919Z,49.65
2023-02-05T14:26:11.922Z,35.17
2023-02-05T14:27:47.185Z,29.40
2023-02-05T14:28:54.224Z,44.58
2023-02-05T14:30:39.258Z,46.75
2023-02-05T14:31:51.627Z,52.15
2023-02-05T14:32:59.885Z,41.17
2023-02-05T14:34:45.771Z,32.20
2023-02-05T14:35:50.529Z,47.88
2023-02-05T14:36:53.252Z,34.22
2023-02-05T14:38:02.650Z,47.08